createdAt,value
2018-03-06T00:00:03.232Z,780
2018-03-06T00:00:07.315Z,780.02
2018-03-06T00:00:11.608Z,780
2018-03-06T00:00:17.139Z,780
2018-03-06T00:00:24.807Z,779.99
2018-03-06T00:00:30.981Z,779.96
2018-03-06T00:00:35.065Z,780
2018-03-06T00:00:39.120Z,779.96
2018-03-06T00:00:43.174Z,779.96
2018-03-06T00:00:47.530Z,779.93
2018-03-06T00:00:51.873Z,779.91
2018-03-06T00:00:56.183Z,779.99
2018-03-06T00:01:00.493Z,779.96
2018-03-06T00:01:04.713Z,779.94
2018-03-06T00:01:08.765Z,779.96
2018-03-06T00:01:12.976Z,779.93
2018-03-06T00:01:17.021Z,779.93
2018-03-06T00:01:21.094Z,779.91
2018-03-06T00:01:25.542Z,779.93
2018-03-06T00:01:29.613Z,779.93
2018-03-06T00:01:35.178Z,779.89
2018-03-06T00:01:43.914Z,779.89
2018-03-06T00:01:50.618Z,779.88
2018-03-06T00:01:54.572Z,779.9
2018-03-06T00:01:58.882Z,779.86
2018-03-06T00:02:03.296Z,779.89
2018-03-06T00:02:07.472Z,779.87
2018-03-06T00:02:11.555Z,779.86
2018-03-06T00:02:16.018Z,779.87
2018-03-06T00:02:20.238Z,779.89
2018-03-06T00:02:24.437Z,779.86
2018-03-06T00:02:28.610Z,779.87
2018-03-06T00:02:32.852Z,779.84
2018-03-06T00:02:37.142Z,779.84
2018-03-06T00:02:41.064Z,779.83
2018-03-06T00:02:45.263Z,779.82
2018-03-06T00:02:49.467Z,779.84
2018-03-06T00:02:56.485Z,779.84
2018-03-06T00:03:05.092Z,779.83
2018-03-06T00:03:11.414Z,779.8
2018-03-06T00:03:15.612Z,779.82
2018-03-06T00:03:19.916Z,779.82
2018-03-06T00:03:24.217Z,779.8
2018-03-06T00:03:28.412Z,779.79
2018-03-06T00:03:32.468Z,779.8
2018-03-06T00:03:36.794Z,779.81
2018-03-06T00:03:40.732Z,779.82
2018-03-06T00:03:44.787Z,779.83
2018-03-06T00:03:48.847Z,779.8
2018-03-06T00:03:52.895Z,779.81
2018-03-06T00:03:57.060Z,779.79
2018-03-06T00:04:01.374Z,779.83
2018-03-06T00:04:05.800Z,779.83
2018-03-06T00:04:09.728Z,779.81
2018-03-06T00:04:15.459Z,779.82
2018-03-06T00:04:22.738Z,779.84
2018-03-06T00:04:28.577Z,779.81
2018-03-06T00:04:33.172Z,779.78
2018-03-06T00:04:37.255Z,779.81
2018-03-06T00:04:41.568Z,779.77
2018-03-06T00:04:45.500Z,779.79
2018-03-06T00:04:49.823Z,779.8
2018-03-06T00:04:53.868Z,779.8
2018-03-06T00:04:57.914Z,779.82
2018-03-06T00:05:02.095Z,779.78
2018-03-06T00:05:06.185Z,779.8
2018-03-06T00:05:10.476Z,779.81
2018-03-06T00:05:14.665Z,779.81
2018-03-06T00:05:18.733Z,779.77
2018-03-06T00:05:22.914Z,779.81
2018-03-06T00:05:27.095Z,779.8
2018-03-06T00:05:31.256Z,779.81
2018-03-06T00:05:39.094Z,779.8
2018-03-06T00:05:43.931Z,779.8
2018-03-06T00:05:49.719Z,779.82
2018-03-06T00:05:53.799Z,779.8
2018-03-06T00:05:57.994Z,779.79
2018-03-06T00:06:02.339Z,779.8
2018-03-06T00:06:06.402Z,779.86
2018-03-06T00:06:10.458Z,779.8
2018-03-06T00:06:14.645Z,779.83
2018-03-06T00:06:19.011Z,779.83
2018-03-06T00:06:23.303Z,779.82
2018-03-06T00:06:27.685Z,779.78
2018-03-06T00:06:31.738Z,779.79
2018-03-06T00:06:35.850Z,779.81
2018-03-06T00:06:40.224Z,779.79
2018-03-06T00:06:44.569Z,779.8
2018-03-06T00:06:48.768Z,779.81
2018-03-06T00:06:55.648Z,779.84
2018-03-06T00:07:03.087Z,779.81
2018-03-06T00:07:09.461Z,779.81
2018-03-06T00:07:13.785Z,779.82
2018-03-06T00:07:18.104Z,779.83
2018-03-06T00:07:22.141Z,779.77
2018-03-06T00:07:26.186Z,779.85
2018-03-06T00:07:30.483Z,779.81
2018-03-06T00:07:34.790Z,779.81
2018-03-06T00:07:39.132Z,779.83
2018-03-06T00:07:43.444Z,779.83
2018-03-06T00:07:47.499Z,779.83
2018-03-06T00:07:51.860Z,779.76
2018-03-06T00:07:55.936Z,779.76
2018-03-06T00:08:00.022Z,779.78
2018-03-06T00:08:04.095Z,779.79
2018-03-06T00:08:08.279Z,779.83
2018-03-06T00:08:13.102Z,779.82
2018-03-06T00:08:19.639Z,779.82
2018-03-06T00:08:29.453Z,779.81
2018-03-06T00:08:35.894Z,779.81
2018-03-06T00:08:40.316Z,779.8
2018-03-06T00:08:44.389Z,779.81
2018-03-06T00:08:48.799Z,779.8
2018-03-06T00:08:52.755Z,779.8
2018-03-06T00:08:56.851Z,779.81
2018-03-06T00:09:00.907Z,779.81
2018-03-06T00:09:04.982Z,779.85
2018-03-06T00:09:08.905Z,779.78
2018-03-06T00:09:12.949Z,779.82
2018-03-06T00:09:16.898Z,779.82
2018-03-06T00:09:20.981Z,779.82
2018-03-06T00:09:25.069Z,779.78
2018-03-06T00:09:29.133Z,779.82
2018-03-06T00:09:33.328Z,779.84
2018-03-06T00:09:39.140Z,779.81
2018-03-06T00:09:43.719Z,779.84
2018-03-06T00:09:51.261Z,779.82
2018-03-06T00:09:57.485Z,779.83
2018-03-06T00:10:01.816Z,779.83
2018-03-06T00:10:05.972Z,779.84
2018-03-06T00:10:10.194Z,779.84
2018-03-06T00:10:14.122Z,779.83
2018-03-06T00:10:18.344Z,779.84
2018-03-06T00:10:22.609Z,779.85
2018-03-06T00:10:26.787Z,779.87
2018-03-06T00:10:31.102Z,779.85
2018-03-06T00:10:34.911Z,779.86
2018-03-06T00:10:39.081Z,779.88
2018-03-06T00:10:43.389Z,779.83
2018-03-06T00:10:47.578Z,779.87
2018-03-06T00:10:51.927Z,779.86
2018-03-06T00:10:56.226Z,779.86
2018-03-06T00:11:00.817Z,779.85
2018-03-06T00:11:07.168Z,779.88
2018-03-06T00:11:13.668Z,779.85
2018-03-06T00:11:19.845Z,779.9
2018-03-06T00:11:23.920Z,779.89
2018-03-06T00:11:28.096Z,779.86
2018-03-06T00:11:32.260Z,779.89
2018-03-06T00:11:36.419Z,779.85
2018-03-06T00:11:40.477Z,779.83
2018-03-06T00:11:44.695Z,779.86
2018-03-06T00:11:48.731Z,779.87
2018-03-06T00:11:52.557Z,779.86
2018-03-06T00:11:56.668Z,779.88
2018-03-06T00:12:00.737Z,779.87
2018-03-06T00:12:05.043Z,779.87
2018-03-06T00:12:09.125Z,779.87
2018-03-06T00:12:13.405Z,779.85
2018-03-06T00:12:17.453Z,779.88
2018-03-06T00:12:23.492Z,779.86
2018-03-06T00:12:31.021Z,779.87
2018-03-06T00:12:38.370Z,779.88
2018-03-06T00:12:42.433Z,779.91
2018-03-06T00:12:46.487Z,779.89
2018-03-06T00:12:50.700Z,779.87
2018-03-06T00:12:54.907Z,779.85
2018-03-06T00:12:59.097Z,779.86
2018-03-06T00:13:03.195Z,779.86
2018-03-06T00:13:07.366Z,779.89
2018-03-06T00:13:11.669Z,779.9
2018-03-06T00:13:15.712Z,779.86
2018-03-06T00:13:19.765Z,779.85
2018-03-06T00:13:24.048Z,779.84
2018-03-06T00:13:28.098Z,779.86
2018-03-06T00:13:32.509Z,779.88
2018-03-06T00:13:36.673Z,779.87
2018-03-06T00:13:40.885Z,779.89
2018-03-06T00:13:48.509Z,779.85
2018-03-06T00:13:56.576Z,779.9
2018-03-06T00:14:01.631Z,779.86
2018-03-06T00:14:05.829Z,779.87
2018-03-06T00:14:09.909Z,779.89
2018-03-06T00:14:13.993Z,779.86
2018-03-06T00:14:18.343Z,779.88
2018-03-06T00:14:22.529Z,779.88
2018-03-06T00:14:27.027Z,779.89
2018-03-06T00:14:31.199Z,779.87
2018-03-06T00:14:35.257Z,779.89
2018-03-06T00:14:39.205Z,779.88
2018-03-06T00:14:43.393Z,779.88
2018-03-06T00:14:47.477Z,779.86
2018-03-06T00:14:51.429Z,779.88
2018-03-06T00:14:55.229Z,779.87
2018-03-06T00:14:59.530Z,779.86
2018-03-06T00:15:06.932Z,779.87
2018-03-06T00:15:12.351Z,779.89
2018-03-06T00:15:19.012Z,779.88
2018-03-06T00:15:23.194Z,779.9
2018-03-06T00:15:27.638Z,779.91
2018-03-06T00:15:32.062Z,779.89
2018-03-06T00:15:36.347Z,779.91
2018-03-06T00:15:40.651Z,779.87
2018-03-06T00:15:44.827Z,779.85
2018-03-06T00:15:49.013Z,779.89
2018-03-06T00:15:53.192Z,779.89
2018-03-06T00:15:57.388Z,779.89
2018-03-06T00:16:01.317Z,779.87
2018-03-06T00:16:05.544Z,779.82
2018-03-06T00:16:09.486Z,779.88
2018-03-06T00:16:13.418Z,779.87
2018-03-06T00:16:17.744Z,779.84
2018-03-06T00:16:25.544Z,779.85
2018-03-06T00:16:35.121Z,779.83
2018-03-06T00:16:40.258Z,779.86
2018-03-06T00:16:44.558Z,779.86
2018-03-06T00:16:48.856Z,779.84
2018-03-06T00:16:53.185Z,779.83
2018-03-06T00:16:57.573Z,779.85
2018-03-06T00:17:01.801Z,779.88
2018-03-06T00:17:06.091Z,779.89
2018-03-06T00:17:10.256Z,779.87
2018-03-06T00:17:14.313Z,779.82
2018-03-06T00:17:18.484Z,779.84
2018-03-06T00:17:22.638Z,779.83
2018-03-06T00:17:26.563Z,779.82
2018-03-06T00:17:30.747Z,779.84
2018-03-06T00:17:34.908Z,779.83
2018-03-06T00:17:39.129Z,779.83
2018-03-06T00:17:46.935Z,779.85
2018-03-06T00:17:54.465Z,779.84
2018-03-06T00:17:58.874Z,779.84
2018-03-06T00:18:02.966Z,779.8
2018-03-06T00:18:07.171Z,779.81
2018-03-06T00:18:11.112Z,779.85
2018-03-06T00:18:15.321Z,779.8
2018-03-06T00:18:19.132Z,779.81
2018-03-06T00:18:23.292Z,779.81
2018-03-06T00:18:27.455Z,779.81
2018-03-06T00:18:31.510Z,779.83
2018-03-06T00:18:35.733Z,779.81
2018-03-06T00:18:40.062Z,779.83
2018-03-06T00:18:44.368Z,779.83
2018-03-06T00:18:48.304Z,779.82
2018-03-06T00:18:52.388Z,779.8
2018-03-06T00:18:56.474Z,779.81
2018-03-06T00:19:03.968Z,779.82
2018-03-06T00:19:11.538Z,779.82
2018-03-06T00:19:17.373Z,779.81
2018-03-06T00:19:21.544Z,779.82
2018-03-06T00:19:25.749Z,779.8
2018-03-06T00:19:29.815Z,779.75
2018-03-06T00:19:34.223Z,779.78
2018-03-06T00:19:38.565Z,779.78
2018-03-06T00:19:42.732Z,779.8
2018-03-06T00:19:47.047Z,779.79
2018-03-06T00:19:51.131Z,779.79
2018-03-06T00:19:55.478Z,779.79
2018-03-06T00:19:59.690Z,779.79
2018-03-06T00:20:03.744Z,779.77
2018-03-06T00:20:07.931Z,779.79
2018-03-06T00:20:12.013Z,779.76
2018-03-06T00:20:16.208Z,779.77
2018-03-06T00:20:21.973Z,779.78
2018-03-06T00:20:30.186Z,779.79
2018-03-06T00:20:35.487Z,779.8
2018-03-06T00:20:39.881Z,779.8
2018-03-06T00:20:43.954Z,779.82
2018-03-06T00:20:48.441Z,779.78
2018-03-06T00:20:52.708Z,779.76
2018-03-06T00:20:57.103Z,779.76
2018-03-06T00:21:01.340Z,779.74
2018-03-06T00:21:05.562Z,779.77
2018-03-06T00:21:09.669Z,779.8
2018-03-06T00:21:13.914Z,779.77
2018-03-06T00:21:18.040Z,779.78
2018-03-06T00:21:22.180Z,779.76
2018-03-06T00:21:26.313Z,779.77
2018-03-06T00:21:30.695Z,779.76
2018-03-06T00:21:34.799Z,779.74
2018-03-06T00:21:39.025Z,779.75
2018-03-06T00:21:43.328Z,779.77
2018-03-06T00:21:47.860Z,779.8
2018-03-06T00:21:54.121Z,779.78
2018-03-06T00:21:59.690Z,779.74
2018-03-06T00:22:06.402Z,779.78
2018-03-06T00:22:10.784Z,779.76
2018-03-06T00:22:14.750Z,779.77
2018-03-06T00:22:18.433Z,779.77
2018-03-06T00:22:22.261Z,779.75
2018-03-06T00:22:26.233Z,779.72
2018-03-06T00:22:30.484Z,779.72
2018-03-06T00:22:34.787Z,779.7
2018-03-06T00:22:39.169Z,779.73
2018-03-06T00:22:43.463Z,779.78
2018-03-06T00:22:47.574Z,779.78
2018-03-06T00:22:51.812Z,779.77
2018-03-06T00:22:55.912Z,779.75
2018-03-06T00:23:00.152Z,779.78
2018-03-06T00:23:04.434Z,779.76
2018-03-06T00:23:08.693Z,779.75
2018-03-06T00:23:12.806Z,779.74
2018-03-06T00:23:16.901Z,779.77
2018-03-06T00:23:21.027Z,779.75
2018-03-06T00:23:29.100Z,779.76
2018-03-06T00:23:34.657Z,779.75
2018-03-06T00:23:39.481Z,779.76
2018-03-06T00:23:44.316Z,779.74
2018-03-06T00:23:48.439Z,779.75
2018-03-06T00:23:52.688Z,779.74
2018-03-06T00:23:57.016Z,779.74
2018-03-06T00:24:00.966Z,779.73
2018-03-06T00:24:05.439Z,779.71
2018-03-06T00:24:09.640Z,779.7
2018-03-06T00:24:13.950Z,779.72
2018-03-06T00:24:18.368Z,779.73
2018-03-06T00:24:22.539Z,779.74
2018-03-06T00:24:26.600Z,779.74
2018-03-06T00:24:30.788Z,779.73
2018-03-06T00:24:35.223Z,779.73
2018-03-06T00:24:40.061Z,779.71
2018-03-06T00:24:47.384Z,779.72
2018-03-06T00:24:54.622Z,779.69
2018-03-06T00:25:01.300Z,779.67
2018-03-06T00:25:05.756Z,779.68
2018-03-06T00:25:10.078Z,779.7
2018-03-06T00:25:14.525Z,779.66
2018-03-06T00:25:18.463Z,779.69
2018-03-06T00:25:22.913Z,779.71
2018-03-06T00:25:27.119Z,779.71
2018-03-06T00:25:31.301Z,779.68
2018-03-06T00:25:35.508Z,779.68
2018-03-06T00:25:39.812Z,779.7
2018-03-06T00:25:43.863Z,779.68
2018-03-06T00:25:48.057Z,779.72
2018-03-06T00:25:52.383Z,779.67
2018-03-06T00:25:56.436Z,779.67
2018-03-06T00:26:00.620Z,779.68
2018-03-06T00:26:05.547Z,779.67
2018-03-06T00:26:13.529Z,779.69
2018-03-06T00:26:18.880Z,779.67
2018-03-06T00:26:27.539Z,779.64
2018-03-06T00:26:32.118Z,779.62
2018-03-06T00:26:36.189Z,779.68
2018-03-06T00:26:40.625Z,779.66
2018-03-06T00:26:44.930Z,779.64
2018-03-06T00:26:49.277Z,779.66
2018-03-06T00:26:53.640Z,779.67
2018-03-06T00:26:57.871Z,779.66
2018-03-06T00:27:02.148Z,779.66
2018-03-06T00:27:06.297Z,779.63
2018-03-06T00:27:10.234Z,779.65
2018-03-06T00:27:14.552Z,779.62
2018-03-06T00:27:18.741Z,779.63
2018-03-06T00:27:23.088Z,779.64
2018-03-06T00:27:27.003Z,779.65
2018-03-06T00:27:34.181Z,779.64
2018-03-06T00:27:42.106Z,779.63
2018-03-06T00:27:50.557Z,779.64
2018-03-06T00:27:55.234Z,779.6
2018-03-06T00:27:59.282Z,779.58
2018-03-06T00:28:03.335Z,779.59
2018-03-06T00:28:07.404Z,779.59
2018-03-06T00:28:11.584Z,779.6
2018-03-06T00:28:15.771Z,779.65
2018-03-06T00:28:19.706Z,779.65
2018-03-06T00:28:23.674Z,779.62
2018-03-06T00:28:28.110Z,779.65
2018-03-06T00:28:32.396Z,779.64
2018-03-06T00:28:36.603Z,779.62
2018-03-06T00:28:40.916Z,779.64
2018-03-06T00:28:45.209Z,779.63
2018-03-06T00:28:49.300Z,779.63
2018-03-06T00:28:54.196Z,779.66
2018-03-06T00:29:02.099Z,779.63
2018-03-06T00:29:11.264Z,779.65
2018-03-06T00:29:16.438Z,779.65
2018-03-06T00:29:20.505Z,779.66
2018-03-06T00:29:24.821Z,779.64
2018-03-06T00:29:29.004Z,779.64
2018-03-06T00:29:33.436Z,779.64
2018-03-06T00:29:37.630Z,779.65
2018-03-06T00:29:41.583Z,779.66
2018-03-06T00:29:45.642Z,779.67
2018-03-06T00:29:49.832Z,779.66
2018-03-06T00:29:53.997Z,779.66
2018-03-06T00:29:57.935Z,779.64
2018-03-06T00:30:02.443Z,779.65
2018-03-06T00:30:06.642Z,779.59
2018-03-06T00:30:10.714Z,779.58
2018-03-06T00:30:14.919Z,779.57
2018-03-06T00:30:22.129Z,779.59
2018-03-06T00:30:30.536Z,779.58
2018-03-06T00:30:35.302Z,779.59
2018-03-06T00:30:39.495Z,779.56
2018-03-06T00:30:43.706Z,779.59
2018-03-06T00:30:47.879Z,779.61
2018-03-06T00:30:52.073Z,779.65
2018-03-06T00:30:56.397Z,779.63
2018-03-06T00:31:00.454Z,779.62
2018-03-06T00:31:04.659Z,779.62
2018-03-06T00:31:08.723Z,779.65
2018-03-06T00:31:12.906Z,779.62
2018-03-06T00:31:16.831Z,779.63
2018-03-06T00:31:20.903Z,779.59
2018-03-06T00:31:24.990Z,779.59
2018-03-06T00:31:29.166Z,779.61
2018-03-06T00:31:33.824Z,779.57
2018-03-06T00:31:41.144Z,779.56
2018-03-06T00:31:49.145Z,779.58
2018-03-06T00:31:55.323Z,779.64
2018-03-06T00:31:59.677Z,779.61
2018-03-06T00:32:03.844Z,779.61
2018-03-06T00:32:07.781Z,779.62
2018-03-06T00:32:12.081Z,779.61
2018-03-06T00:32:16.302Z,779.6
2018-03-06T00:32:20.483Z,779.59
2018-03-06T00:32:24.698Z,779.62
2018-03-06T00:32:29.377Z,779.6
2018-03-06T00:32:33.430Z,779.59
2018-03-06T00:32:37.736Z,779.61
2018-03-06T00:32:41.790Z,779.61
2018-03-06T00:32:45.949Z,779.55
2018-03-06T00:32:50.261Z,779.6
2018-03-06T00:32:54.438Z,779.6
2018-03-06T00:33:00.594Z,779.61
2018-03-06T00:33:07.064Z,779.59
2018-03-06T00:33:13.949Z,779.59
2018-03-06T00:33:18.382Z,779.55
2018-03-06T00:33:22.556Z,779.57
2018-03-06T00:33:26.749Z,779.56
2018-03-06T00:33:30.941Z,779.57
2018-03-06T00:33:35.246Z,779.55
2018-03-06T00:33:39.428Z,779.52
2018-03-06T00:33:43.497Z,779.57
2018-03-06T00:33:47.806Z,779.57
2018-03-06T00:33:51.754Z,779.55
2018-03-06T00:33:55.629Z,779.54
2018-03-06T00:33:59.764Z,779.59
2018-03-06T00:34:04.092Z,779.5
2018-03-06T00:34:08.147Z,779.59
2018-03-06T00:34:12.205Z,779.53
2018-03-06T00:34:19.042Z,779.58
2018-03-06T00:34:24.487Z,779.56
2018-03-06T00:34:32.567Z,779.57
2018-03-06T00:34:36.887Z,779.56
2018-03-06T00:34:41.093Z,779.6
2018-03-06T00:34:45.182Z,779.56
2018-03-06T00:34:49.647Z,779.58
2018-03-06T00:34:54.014Z,779.54
2018-03-06T00:34:58.208Z,779.54
2018-03-06T00:35:02.891Z,779.53
2018-03-06T00:35:06.971Z,779.55
2018-03-06T00:35:11.149Z,779.58
2018-03-06T00:35:15.466Z,779.5
2018-03-06T00:35:19.648Z,779.55
2018-03-06T00:35:23.836Z,779.55
2018-03-06T00:35:27.636Z,779.57
2018-03-06T00:35:31.815Z,779.55
2018-03-06T00:35:37.413Z,779.53
2018-03-06T00:35:43.977Z,779.5
2018-03-06T00:35:51.524Z,779.6
2018-03-06T00:35:55.687Z,779.54
2018-03-06T00:35:59.900Z,779.55
2018-03-06T00:36:04.104Z,779.49
2018-03-06T00:36:08.197Z,779.47
2018-03-06T00:36:12.614Z,779.56
2018-03-06T00:36:16.908Z,779.54
2018-03-06T00:36:20.956Z,779.49
2018-03-06T00:36:25.272Z,779.47
2018-03-06T00:36:29.210Z,779.55
2018-03-06T00:36:33.372Z,779.51
2018-03-06T00:36:37.591Z,779.49
2018-03-06T00:36:41.682Z,779.45
2018-03-06T00:36:45.734Z,779.46
2018-03-06T00:36:49.827Z,779.5
2018-03-06T00:36:53.823Z,779.5
2018-03-06T00:37:01.150Z,779.49
2018-03-06T00:37:08.093Z,779.47
2018-03-06T00:37:13.203Z,779.43
2018-03-06T00:37:17.252Z,779.43
2018-03-06T00:37:21.587Z,779.42
2018-03-06T00:37:25.622Z,779.4
2018-03-06T00:37:29.559Z,779.44
2018-03-06T00:37:34.039Z,779.42
2018-03-06T00:37:37.988Z,779.39
2018-03-06T00:37:42.060Z,779.39
2018-03-06T00:37:46.115Z,779.4
2018-03-06T00:37:50.418Z,779.42
2018-03-06T00:37:54.484Z,779.42
2018-03-06T00:37:58.785Z,779.39
2018-03-06T00:38:02.921Z,779.37
2018-03-06T00:38:06.989Z,779.39
2018-03-06T00:38:11.336Z,779.36
2018-03-06T00:38:16.155Z,779.33
2018-03-06T00:38:24.276Z,779.35
2018-03-06T00:38:31.318Z,779.32
2018-03-06T00:38:36.565Z,779.3
2018-03-06T00:38:40.619Z,779.3
2018-03-06T00:38:44.818Z,779.29
2018-03-06T00:38:49.034Z,779.31
2018-03-06T00:38:53.216Z,779.28
2018-03-06T00:38:57.426Z,779.29
2018-03-06T00:39:01.356Z,779.31
2018-03-06T00:39:05.836Z,779.25
2018-03-06T00:39:09.900Z,779.25
2018-03-06T00:39:14.072Z,779.23
2018-03-06T00:39:18.163Z,779.27
2018-03-06T00:39:22.203Z,779.27
2018-03-06T00:39:26.312Z,779.23
2018-03-06T00:39:30.516Z,779.22
2018-03-06T00:39:34.589Z,779.2
2018-03-06T00:39:42.479Z,779.2
2018-03-06T00:39:49.361Z,779.18
2018-03-06T00:39:57.050Z,779.15
2018-03-06T00:40:03.673Z,779.15
2018-03-06T00:40:07.602Z,779.12
2018-03-06T00:40:11.666Z,779.11
2018-03-06T00:40:15.849Z,779.1
2018-03-06T00:40:19.808Z,779.09
2018-03-06T00:40:23.883Z,779.1
2018-03-06T00:40:28.058Z,779.05
2018-03-06T00:40:32.253Z,779.1
2018-03-06T00:40:36.433Z,779.1
2018-03-06T00:40:40.854Z,779.04
2018-03-06T00:40:45.041Z,779.02
2018-03-06T00:40:49.318Z,779.02
2018-03-06T00:40:53.763Z,779.02
2018-03-06T00:40:57.962Z,779
2018-03-06T00:41:02.549Z,779.03
2018-03-06T00:41:08.313Z,778.99
2018-03-06T00:41:14.648Z,778.98
2018-03-06T00:41:22.657Z,778.93
2018-03-06T00:41:30.378Z,778.9
2018-03-06T00:41:34.444Z,778.88
2018-03-06T00:41:38.620Z,778.87
2018-03-06T00:41:42.925Z,778.89
2018-03-06T00:41:47.200Z,778.91
2018-03-06T00:41:51.677Z,778.9
2018-03-06T00:41:55.864Z,778.88
2018-03-06T00:42:00.216Z,778.88
2018-03-06T00:42:04.352Z,778.87
2018-03-06T00:42:08.553Z,778.84
2018-03-06T00:42:12.633Z,778.87
2018-03-06T00:42:16.947Z,778.83
2018-03-06T00:42:21.125Z,778.86
2018-03-06T00:42:25.455Z,778.78
2018-03-06T00:42:29.775Z,778.74
2018-03-06T00:42:38.272Z,778.79
2018-03-06T00:42:46.367Z,778.75
2018-03-06T00:42:52.455Z,778.74
2018-03-06T00:42:58.262Z,778.71
2018-03-06T00:43:02.586Z,778.74
2018-03-06T00:43:07.010Z,778.72
2018-03-06T00:43:11.002Z,778.7
2018-03-06T00:43:15.432Z,778.72
2018-03-06T00:43:19.860Z,778.7
2018-03-06T00:43:24.065Z,778.7
2018-03-06T00:43:28.400Z,778.67
2018-03-06T00:43:32.836Z,778.66
2018-03-06T00:43:37.141Z,778.63
2018-03-06T00:43:41.458Z,778.64
2018-03-06T00:43:45.756Z,778.64
2018-03-06T00:43:49.824Z,778.63
2018-03-06T00:43:54.073Z,778.62
2018-03-06T00:43:58.527Z,778.62
2018-03-06T00:44:06.934Z,778.58
2018-03-06T00:44:14.084Z,778.57
2018-03-06T00:44:20.549Z,778.54
2018-03-06T00:44:27.797Z,778.56
2018-03-06T00:44:32.051Z,778.54
2018-03-06T00:44:36.117Z,778.55
2018-03-06T00:44:39.971Z,778.53
2018-03-06T00:44:44.187Z,778.52
2018-03-06T00:44:48.167Z,778.5
2018-03-06T00:44:52.227Z,778.47
2018-03-06T00:44:56.521Z,778.45
2018-03-06T00:45:00.581Z,778.47
2018-03-06T00:45:04.653Z,778.48
2018-03-06T00:45:08.705Z,778.47
2018-03-06T00:45:13.062Z,778.45
2018-03-06T00:45:17.384Z,778.47
2018-03-06T00:45:21.706Z,778.45
2018-03-06T00:45:26.019Z,778.41
2018-03-06T00:45:33.527Z,778.41
2018-03-06T00:45:41.513Z,778.4
2018-03-06T00:45:49.008Z,778.34
2018-03-06T00:45:54.767Z,778.33
2018-03-06T00:45:59.073Z,778.35
2018-03-06T00:46:03.545Z,778.37
2018-03-06T00:46:07.753Z,778.33
2018-03-06T00:46:12.050Z,778.33
2018-03-06T00:46:16.095Z,778.32
2018-03-06T00:46:20.356Z,778.32
2018-03-06T00:46:24.791Z,778.34
2018-03-06T00:46:28.711Z,778.33
2018-03-06T00:46:32.791Z,778.29
2018-03-06T00:46:36.722Z,778.27
2018-03-06T00:46:40.766Z,778.28
2018-03-06T00:46:45.217Z,778.28
2018-03-06T00:46:49.274Z,778.26
2018-03-06T00:46:53.457Z,778.25
2018-03-06T00:47:01.513Z,778.18
2018-03-06T00:47:09.696Z,778.2
2018-03-06T00:47:18.022Z,778.19
2018-03-06T00:47:23.127Z,778.14
2018-03-06T00:47:27.205Z,778.13
2018-03-06T00:47:31.405Z,778.11
2018-03-06T00:47:35.862Z,778.12
2018-03-06T00:47:40.060Z,778.13
2018-03-06T00:47:44.131Z,778.11
2018-03-06T00:47:48.204Z,778.13
2018-03-06T00:47:52.378Z,778.18
2018-03-06T00:47:56.577Z,778.12
2018-03-06T00:48:00.916Z,778.11
2018-03-06T00:48:05.236Z,778.09
2018-03-06T00:48:09.173Z,778.12
2018-03-06T00:48:13.350Z,778.1
2018-03-06T00:48:17.543Z,778.08
2018-03-06T00:48:21.595Z,778.1
2018-03-06T00:48:30.461Z,778.08
2018-03-06T00:48:38.711Z,778.05
2018-03-06T00:48:45.183Z,778.03
2018-03-06T00:48:49.272Z,778.05
2018-03-06T00:48:53.483Z,778.07
2018-03-06T00:48:57.546Z,778.03
2018-03-06T00:49:01.616Z,778.03
2018-03-06T00:49:05.972Z,778.04
2018-03-06T00:49:10.159Z,778.02
2018-03-06T00:49:14.098Z,778.05
2018-03-06T00:49:18.418Z,778.02
2018-03-06T00:49:22.469Z,778.03
2018-03-06T00:49:26.638Z,778.07
2018-03-06T00:49:30.692Z,778.03
2018-03-06T00:49:34.756Z,778.01
2018-03-06T00:49:39.070Z,778.04
2018-03-06T00:49:43.238Z,778.04
2018-03-06T00:49:48.190Z,778.05
2018-03-06T00:49:56.309Z,778.01
2018-03-06T00:50:05.164Z,778.03
2018-03-06T00:50:11.808Z,778.05
2018-03-06T00:50:16.098Z,778.03
2018-03-06T00:50:20.308Z,778.01
2018-03-06T00:50:24.800Z,778.01
2018-03-06T00:50:29.207Z,778
2018-03-06T00:50:33.388Z,777.99
2018-03-06T00:50:37.735Z,777.99
2018-03-06T00:50:41.914Z,777.96
2018-03-06T00:50:45.986Z,778.01
2018-03-06T00:50:50.326Z,778.02
2018-03-06T00:50:54.384Z,778
2018-03-06T00:50:58.693Z,777.99
2018-03-06T00:51:02.967Z,777.99
2018-03-06T00:51:07.047Z,778.01
2018-03-06T00:51:11.535Z,777.99
2018-03-06T00:51:19.000Z,777.95
2018-03-06T00:51:28.033Z,777.95
2018-03-06T00:51:35.023Z,777.97
2018-03-06T00:51:39.222Z,777.95
2018-03-06T00:51:43.429Z,777.96
2018-03-06T00:51:47.902Z,777.97
2018-03-06T00:51:52.260Z,777.95
2018-03-06T00:51:56.488Z,778
2018-03-06T00:52:00.665Z,777.95
2018-03-06T00:52:04.907Z,777.96
2018-03-06T00:52:09.106Z,777.99
2018-03-06T00:52:13.406Z,777.96
2018-03-06T00:52:17.724Z,777.93
2018-03-06T00:52:21.790Z,777.95
2018-03-06T00:52:26.098Z,777.94
2018-03-06T00:52:30.149Z,777.89
2018-03-06T00:52:34.420Z,777.95
2018-03-06T00:52:39.109Z,777.9
2018-03-06T00:52:46.597Z,777.93
2018-03-06T00:52:55.119Z,777.95
2018-03-06T00:53:00.714Z,777.88
2018-03-06T00:53:04.767Z,777.93
2018-03-06T00:53:08.817Z,777.91
2018-03-06T00:53:13.017Z,777.92
2018-03-06T00:53:17.228Z,777.9
2018-03-06T00:53:21.311Z,777.89
2018-03-06T00:53:25.497Z,777.88
2018-03-06T00:53:29.566Z,777.91
2018-03-06T00:53:33.762Z,777.88
2018-03-06T00:53:38.234Z,777.88
2018-03-06T00:53:42.557Z,777.88
2018-03-06T00:53:46.875Z,777.88
2018-03-06T00:53:50.946Z,777.88
2018-03-06T00:53:55.159Z,777.85
2018-03-06T00:53:59.345Z,777.85
2018-03-06T00:54:05.903Z,777.81
2018-03-06T00:54:12.792Z,777.82
2018-03-06T00:54:20.204Z,777.8
2018-03-06T00:54:25.833Z,777.79
2018-03-06T00:54:29.633Z,777.83
2018-03-06T00:54:34.087Z,777.82
2018-03-06T00:54:38.399Z,777.85
2018-03-06T00:54:42.712Z,777.85
2018-03-06T00:54:47.212Z,777.84
2018-03-06T00:54:51.271Z,777.81
2018-03-06T00:54:55.458Z,777.83
2018-03-06T00:54:59.401Z,777.84
2018-03-06T00:55:03.950Z,777.82
2018-03-06T00:55:08.136Z,777.79
2018-03-06T00:55:12.550Z,777.79
2018-03-06T00:55:17.026Z,777.81
2018-03-06T00:55:20.958Z,777.8
2018-03-06T00:55:25.019Z,777.8
2018-03-06T00:55:34.439Z,777.8
2018-03-06T00:55:40.492Z,777.78
2018-03-06T00:55:47.165Z,777.78
2018-03-06T00:55:52.327Z,777.77
2018-03-06T00:55:56.258Z,777.74
2018-03-06T00:56:00.592Z,777.78
2018-03-06T00:56:04.849Z,777.76
2018-03-06T00:56:09.171Z,777.76
2018-03-06T00:56:13.494Z,777.76
2018-03-06T00:56:17.700Z,777.76
2018-03-06T00:56:22.301Z,777.74
2018-03-06T00:56:26.975Z,777.75
2018-03-06T00:56:30.988Z,777.73
2018-03-06T00:56:35.447Z,777.75
2018-03-06T00:56:39.868Z,777.74
2018-03-06T00:56:43.937Z,777.74
2018-03-06T00:56:48.245Z,777.76
2018-03-06T00:56:53.824Z,777.71
2018-03-06T00:56:59.530Z,777.72
2018-03-06T00:57:06.965Z,777.69
2018-03-06T00:57:13.763Z,777.69
2018-03-06T00:57:17.994Z,777.71
2018-03-06T00:57:22.179Z,777.71
2018-03-06T00:57:26.114Z,777.69
2018-03-06T00:57:30.296Z,777.68
2018-03-06T00:57:34.354Z,777.65
2018-03-06T00:57:38.544Z,777.67
2018-03-06T00:57:42.749Z,777.65
2018-03-06T00:57:46.926Z,777.64
2018-03-06T00:57:50.991Z,777.66
2018-03-06T00:57:55.203Z,777.65
2018-03-06T00:57:59.014Z,777.65
2018-03-06T00:58:03.369Z,777.63
2018-03-06T00:58:07.552Z,777.65
2018-03-06T00:58:11.731Z,777.66
2018-03-06T00:58:15.911Z,777.62
2018-03-06T00:58:23.441Z,777.67
2018-03-06T00:58:30.024Z,777.64
2018-03-06T00:58:38.402Z,777.63
2018-03-06T00:58:42.859Z,777.64
2018-03-06T00:58:47.048Z,777.62
2018-03-06T00:58:51.245Z,777.61
2018-03-06T00:58:55.223Z,777.62
2018-03-06T00:58:59.581Z,777.61